Time;durP1;ratioP1;P1;durP2;ratioP2;P2;SDS_P1;SDS_P2;PMS_P1;PMS_P2;Temp;Humidity;BMP_temperature;BMP_pressure;BME280_temperature;BME280_humidity;BME280_pressure;Samples;Min_cycle;Max_cycle;Signal;HPM_P1;HPM_P2
2023/10/19 00:02:08;;;;;;;15.63;14.13;;;;;;;8.80;67.39;94993.28;5111669;27;20211;-72
2023/10/19 00:04:37;;;;;;;15.53;14.07;;;;;;;8.78;67.27;94997.00;5129864;27;20226;-72
2023/10/19 00:07:07;;;;;;;15.07;13.43;;;;;;;8.85;67.21;94990.25;5113550;27;20218;-73
2023/10/19 00:09:37;;;;;;;13.57;12.17;;;;;;;8.92;67.34;94974.75;5111315;27;20215;-72
2023/10/19 00:12:05;;;;;;;12.87;11.67;;;;;;;8.91;67.34;94978.34;5112695;27;20227;-73
2023/10/19 00:14:32;;;;;;;14.00;12.70;;;;;;;8.92;67.48;94970.34;5126924;27;20179;-71
2023/10/19 00:17:01;;;;;;;13.17;11.87;;;;;;;8.95;67.46;94970.03;5113123;27;20185;-72
2023/10/19 00:19:30;;;;;;;14.00;12.07;;;;;;;8.91;67.06;94968.69;5123499;27;20219;-73
2023/10/19 00:22:01;;;;;;;13.87;12.57;;;;;;;8.95;67.25;94966.59;5111104;27;20238;-72
2023/10/19 00:24:27;;;;;;;14.67;13.20;;;;;;;8.90;67.50;94963.56;5113231;27;20231;-72
2023/10/19 00:26:54;;;;;;;14.00;12.60;;;;;;;8.98;67.54;94963.69;5113023;27;20313;-72
2023/10/19 00:29:30;;;;;;;13.50;12.20;;;;;;;9.03;66.88;94962.31;5111918;27;20297;-72
2023/10/19 00:31:58;;;;;;;14.73;13.33;;;;;;;8.89;67.63;94959.31;5114074;27;20246;-73
2023/10/19 00:34:24;;;;;;;12.97;11.67;;;;;;;8.80;68.22;94959.19;5126888;27;20275;-71
2023/10/19 00:36:51;;;;;;;13.70;12.47;;;;;;;8.97;67.54;94949.75;5112324;27;20218;-71
2023/10/19 00:39:21;;;;;;;14.10;12.60;;;;;;;8.90;67.81;94953.94;5104923;27;20279;-71
2023/10/19 00:41:47;;;;;;;14.20;13.00;;;;;;;8.86;67.51;94949.13;5129102;27;20226;-70
2023/10/19 00:44:18;;;;;;;16.97;15.17;;;;;;;8.29;69.04;94949.88;5105124;27;20192;-70
2023/10/19 00:46:52;;;;;;;16.63;15.03;;;;;;;8.13;69.92;94949.63;5111366;27;20282;-70
2023/10/19 00:49:23;;;;;;;16.30;14.63;;;;;;;8.45;68.96;94943.28;5108759;27;20231;-70
2023/10/19 00:57:13;;;;;;;15.40;13.90;;;;;;;8.60;68.07;94950.53;5123321;27;20305;-70
2023/10/19 00:59:53;;;;;;;14.13;12.83;;;;;;;8.46;68.42;94947.53;5104064;27;20222;-71
2023/10/19 01:04:50;;;;;;;14.47;13.07;;;;;;;8.54;68.46;94953.72;5129991;27;20190;-70
2023/10/19 01:07:21;;;;;;;14.70;13.20;;;;;;;8.61;68.11;94948.78;5110833;28;20231;-71
2023/10/19 01:09:47;;;;;;;13.90;12.53;;;;;;;8.65;68.09;94955.38;5108941;28;20265;-72
2023/10/19 01:14:43;;;;;;;15.87;14.00;;;;;;;8.37;68.46;94944.78;5130143;27;20226;-73
2023/10/19 01:17:11;;;;;;;15.47;13.97;;;;;;;8.42;68.60;94951.41;5113119;27;20202;-72
2023/10/19 01:19:36;;;;;;;15.10;13.60;;;;;;;8.39;68.44;94955.13;5111947;27;20225;-71
2023/10/19 01:22:04;;;;;;;15.07;13.57;;;;;;;8.48;68.42;94956.09;5111418;28;20234;-72
2023/10/19 01:24:48;;;;;;;15.87;14.37;;;;;;;8.28;68.75;94952.63;5128792;27;20230;-72
2023/10/19 01:27:14;;;;;;;16.17;14.57;;;;;;;8.13;68.83;94957.47;5112089;28;20267;-72
2023/10/19 01:29:40;;;;;;;16.80;14.37;;;;;;;8.19;68.99;94959.53;5111649;28;20222;-72
2023/10/19 01:32:08;;;;;;;16.03;14.53;;;;;;;8.37;68.45;94950.00;5112887;28;20189;-72
2023/10/19 01:34:37;;;;;;;16.10;14.47;;;;;;;8.35;68.60;94944.09;5110997;28;20215;-72
2023/10/19 01:37:03;;;;;;;16.40;14.70;;;;;;;8.52;68.19;94946.97;5111536;28;20226;-72
2023/10/19 01:39:38;;;;;;;15.37;13.83;;;;;;;8.21;68.89;94949.75;5111454;28;20305;-72
2023/10/19 01:42:04;;;;;;;16.33;14.83;;;;;;;8.01;69.81;94954.16;5127786;28;20230;-72
2023/10/19 01:44:31;;;;;;;16.07;14.23;;;;;;;7.97;70.34;94957.22;5110574;28;20282;-72
2023/10/19 01:46:56;;;;;;;16.33;14.73;;;;;;;8.33;68.96;94953.03;5112208;28;20182;-72
2023/10/19 01:49:28;;;;;;;16.37;14.77;;;;;;;8.49;68.24;94953.31;5111939;28;20295;-73
2023/10/19 01:51:54;;;;;;;15.07;13.57;;;;;;;8.14;69.59;94961.75;5129597;28;20246;-73
2023/10/19 01:54:23;;;;;;;15.23;13.73;;;;;;;8.08;70.23;94959.69;5115565;28;20225;-72
2023/10/19 01:56:54;;;;;;;14.37;12.90;;;;;;;8.24;69.71;94954.72;5126248;28;20249;-72
2023/10/19 01:59:27;;;;;;;14.60;13.10;;;;;;;8.30;69.58;94964.63;5111379;28;20207;-70
2023/10/19 02:01:54;;;;;;;13.83;12.57;;;;;;;8.27;70.15;94957.06;5110881;28;20266;-71
2023/10/19 02:04:21;;;;;;;13.50;12.20;;;;;;;8.34;69.61;94950.28;5106848;28;20229;-72
2023/10/19 02:06:48;;;;;;;13.60;12.30;;;;;;;8.22;70.15;94955.81;5113001;28;20222;-72
2023/10/19 02:09:17;;;;;;;13.80;12.40;;;;;;;8.44;69.38;94950.28;5126881;28;20226;-73
2023/10/19 02:11:47;;;;;;;12.37;11.17;;;;;;;8.57;68.97;94942.13;5102133;28;20252;-73
2023/10/19 02:14:16;;;;;;;13.17;11.93;;;;;;;8.57;69.16;94948.22;5110888;28;20200;-72
2023/10/19 02:16:52;;;;;;;14.67;13.27;;;;;;;8.59;68.85;94948.06;5111618;28;20222;-72
2023/10/19 02:19:22;;;;;;;13.63;12.43;;;;;;;8.31;70.14;94960.22;5104241;27;20233;-72
2023/10/19 02:21:58;;;;;;;13.73;11.67;;;;;;;8.07;71.03;94956.25;5112095;27;20226;-72
2023/10/19 02:24:24;;;;;;;13.23;11.93;;;;;;;7.92;71.73;94957.59;5113187;27;20226;-71
2023/10/19 02:26:51;;;;;;;14.70;13.30;;;;;;;7.99;72.40;94965.72;5115643;27;20242;-73
2023/10/19 02:29:18;;;;;;;14.73;13.13;;;;;;;8.12;72.12;94961.03;5113906;27;20262;-72
2023/10/19 02:31:44;;;;;;;13.97;12.67;;;;;;;8.26;71.49;94957.19;5116294;27;20206;-72
2023/10/19 02:34:14;;;;;;;13.23;12.03;;;;;;;8.35;70.89;94951.13;5113687;27;20241;-72
2023/10/19 02:36:42;;;;;;;14.20;12.63;;;;;;;8.42;70.51;94948.78;5107817;27;20226;-72
2023/10/19 02:39:09;;;;;;;14.43;13.03;;;;;;;8.54;69.97;94953.72;5113795;27;20234;-71
2023/10/19 02:41:36;;;;;;;13.93;12.60;;;;;;;8.61;69.55;94954.84;5132331;27;20355;-71
2023/10/19 02:44:09;;;;;;;12.57;11.27;;;;;;;8.65;69.79;94962.41;5115201;27;20229;-71
2023/10/19 02:46:41;;;;;;;13.77;12.37;;;;;;;8.60;69.61;94954.97;5112189;27;20218;-73
2023/10/19 02:49:11;;;;;;;14.37;12.90;;;;;;;8.42;70.92;94941.78;5111143;27;20309;-73
2023/10/19 02:51:44;;;;;;;13.90;12.10;;;;;;;8.20;71.53;94947.25;5114480;27;20256;-72
2023/10/19 02:54:22;;;;;;;16.60;14.90;;;;;;;8.35;71.01;94944.09;5114463;27;20222;-72
2023/10/19 02:56:51;;;;;;;15.23;13.63;;;;;;;8.27;71.73;94948.38;5115888;27;20225;-72
2023/10/19 02:59:21;;;;;;;14.77;13.27;;;;;;;8.27;71.87;94957.06;5129837;27;20280;-73
2023/10/19 03:01:47;;;;;;;14.47;13.00;;;;;;;8.37;71.01;94942.16;5106747;27;20232;-72
2023/10/19 03:04:13;;;;;;;15.27;13.47;;;;;;;8.53;70.12;94948.66;5114670;27;20219;-72
2023/10/19 03:06:40;;;;;;;16.17;14.57;;;;;;;8.41;70.70;94949.75;5114906;27;20268;-73
2023/10/19 03:09:13;;;;;;;15.93;13.67;;;;;;;8.40;70.71;94938.47;5114329;27;20271;-73
2023/10/19 03:11:43;;;;;;;15.50;13.87;;;;;;;8.48;70.45;94945.63;5113082;27;20222;-73
2023/10/19 03:14:11;;;;;;;14.70;13.13;;;;;;;8.36;70.68;94952.75;5114241;27;20250;-73
2023/10/19 03:16:37;;;;;;;17.60;12.40;;;;;;;8.44;70.80;94942.44;5105049;27;20317;-73
2023/10/19 03:19:04;;;;;;;14.80;13.40;;;;;;;8.42;70.78;94943.53;5114185;27;20219;-72
2023/10/19 03:21:34;;;;;;;14.07;12.47;;;;;;;8.36;71.11;94940.47;5130402;27;20231;-71
2023/10/19 03:24:12;;;;;;;13.80;12.23;;;;;;;8.52;70.35;94947.78;5114104;27;20241;-71
2023/10/19 03:26:40;;;;;;;14.47;12.70;;;;;;;8.53;70.22;94946.84;5111169;27;20317;-71
2023/10/19 03:29:12;;;;;;;13.20;11.80;;;;;;;8.46;70.19;94943.13;5113816;27;20194;-71
2023/10/19 03:31:43;;;;;;;18.47;14.10;;;;;;;8.41;70.14;94949.75;5113373;27;20246;-70
2023/10/19 03:34:12;;;;;;;15.23;12.97;;;;;;;8.30;70.71;94948.91;5114175;27;20226;-71
2023/10/19 03:36:38;;;;;;;15.00;13.60;;;;;;;8.31;70.57;94945.34;5114489;27;20227;-70
2023/10/19 03:39:11;;;;;;;14.47;12.97;;;;;;;8.44;70.28;94939.00;5113522;27;20237;-70
2023/10/19 03:41:39;;;;;;;14.63;13.13;;;;;;;8.42;70.24;94943.53;5104128;27;21896;-71
2023/10/19 03:44:05;;;;;;;14.80;13.27;;;;;;;8.25;70.55;94939.81;5114448;27;20179;-71
2023/10/19 03:46:31;;;;;;;15.17;13.60;;;;;;;8.20;70.85;94940.22;5108324;27;20325;-70
2023/10/19 03:49:13;;;;;;;15.10;13.70;;;;;;;8.11;70.97;94941.06;5113795;27;20218;-70
2023/10/19 03:51:58;;;;;;;14.67;13.27;;;;;;;8.21;70.42;94927.97;5113444;27;20226;-72
2023/10/19 03:54:25;;;;;;;15.00;13.43;;;;;;;7.98;71.00;94928.25;5106825;27;20248;-71
2023/10/19 03:56:50;;;;;;;15.63;13.87;;;;;;;8.06;70.62;94924.94;5114129;27;20217;-69
2023/10/19 03:59:22;;;;;;;15.70;13.73;;;;;;;7.94;71.26;94927.72;5112848;27;20187;-73
2023/10/19 04:01:48;;;;;;;15.30;13.80;;;;;;;8.09;70.70;94920.25;5113502;27;20234;-71
2023/10/19 04:04:16;;;;;;;15.07;13.57;;;;;;;8.27;69.66;94927.41;5112879;27;20234;-71
2023/10/19 04:06:47;;;;;;;15.00;13.60;;;;;;;8.20;70.03;94916.66;5111693;27;20296;-73
2023/10/19 04:09:17;;;;;;;16.27;14.27;;;;;;;8.09;70.18;94916.81;5107748;27;20249;-72
2023/10/19 04:11:48;;;;;;;18.70;14.90;;;;;;;8.09;70.54;94929.91;5112744;27;20226;-72
2023/10/19 04:14:18;;;;;;;15.47;13.83;;;;;;;8.07;70.77;94930.06;5112873;27;20242;-71
2023/10/19 04:16:44;;;;;;;15.80;14.10;;;;;;;8.07;70.19;94932.69;5110577;27;20210;-70
2023/10/19 04:19:10;;;;;;;17.33;13.87;;;;;;;7.99;70.56;94931.69;5112591;27;20259;-72
2023/10/19 04:21:38;;;;;;;16.03;14.43;;;;;;;7.58;71.68;94929.19;5129888;27;20249;-71
2023/10/19 04:24:07;;;;;;;18.27;16.23;;;;;;;7.49;71.98;94922.16;5110509;27;20269;-71
2023/10/19 04:26:37;;;;;;;19.23;14.67;;;;;;;7.66;71.48;94928.50;5112889;27;20258;-71
2023/10/19 04:29:10;;;;;;;16.17;14.67;;;;;;;7.92;70.51;94934.88;5110271;27;20175;-72
2023/10/19 04:31:58;;;;;;;17.07;13.77;;;;;;;7.78;70.59;94924.81;5129324;27;20215;-73
2023/10/19 04:34:24;;;;;;;16.43;14.40;;;;;;;7.35;72.37;94925.13;5109751;27;20219;-72
2023/10/19 04:36:50;;;;;;;16.23;14.53;;;;;;;7.61;71.17;94915.00;5113681;27;20226;-73
2023/10/19 04:39:19;;;;;;;16.77;14.73;;;;;;;7.82;70.21;94913.09;5095790;28;20279;-70
2023/10/19 04:41:45;;;;;;;15.23;13.73;;;;;;;7.84;70.17;94921.63;5101945;27;20234;-69
2023/10/19 04:44:11;;;;;;;16.83;14.63;;;;;;;7.79;70.32;94916.00;5112246;27;20209;-72
2023/10/19 04:46:37;;;;;;;15.90;14.30;;;;;;;7.85;70.06;94912.81;5109940;27;20219;-71
2023/10/19 04:49:03;;;;;;;15.73;13.13;;;;;;;7.87;69.96;94910.88;5113641;27;20217;-71
2023/10/19 04:51:29;;;;;;;15.73;13.97;;;;;;;7.89;69.98;94903.72;5111581;27;20211;-71
2023/10/19 04:53:55;;;;;;;24.07;14.60;;;;;;;7.97;70.08;94910.06;5110861;27;20301;-69
2023/10/19 04:56:21;;;;;;;19.47;15.60;;;;;;;7.85;70.70;94897.09;5113891;27;20210;-70
2023/10/19 04:58:47;;;;;;;17.77;15.10;;;;;;;7.90;70.33;94900.13;5115316;27;20222;-71
2023/10/19 05:01:13;;;;;;;24.77;16.00;;;;;;;7.94;70.36;94906.75;5104764;27;20367;-71
2023/10/19 05:03:38;;;;;;;23.33;16.17;;;;;;;7.84;70.90;94907.72;5125373;27;20226;-71
2023/10/19 05:06:04;;;;;;;23.23;16.27;;;;;;;7.83;70.90;94906.06;5106145;27;20270;-70
2023/10/19 05:08:32;;;;;;;18.43;16.53;;;;;;;7.78;71.45;94909.09;5113664;27;20261;-70
2023/10/19 05:10:59;;;;;;;21.53;16.23;;;;;;;8.01;70.52;94911.44;5105507;27;20178;-72
2023/10/19 05:13:25;;;;;;;20.60;14.83;;;;;;;7.94;70.51;94909.38;5113759;27;20238;-72
2023/10/19 05:15:53;;;;;;;14.97;13.47;;;;;;;8.07;70.12;94908.25;5104594;27;20215;-70
2023/10/19 05:18:19;;;;;;;19.60;13.33;;;;;;;8.13;69.51;94918.19;5110554;27;20297;-73
2023/10/19 05:20:46;;;;;;;20.60;15.83;;;;;;;7.78;70.56;94910.88;5124908;27;20250;-74
2023/10/19 05:23:13;;;;;;;18.83;15.00;;;;;;;7.83;70.49;94922.63;5109678;28;20231;-69
2023/10/19 05:25:38;;;;;;;17.43;15.70;;;;;;;7.65;70.36;94905.94;5105574;28;20227;-70
2023/10/19 05:28:05;;;;;;;18.03;14.53;;;;;;;7.90;70.15;94918.47;5109851;28;20223;-69
2023/10/19 05:30:31;;;;;;;21.93;15.07;;;;;;;7.82;70.62;94918.31;5091793;28;20223;-72
2023/10/19 05:32:57;;;;;;;23.33;15.47;;;;;;;7.88;70.30;94922.19;5105247;28;20247;-71
2023/10/19 05:35:26;;;;;;;21.40;14.93;;;;;;;7.87;70.69;94923.16;5108751;28;20207;-72
2023/10/19 05:37:52;;;;;;;20.67;15.27;;;;;;;8.07;69.85;94910.88;5110131;28;20263;-74
2023/10/19 05:40:19;;;;;;;26.17;16.17;;;;;;;7.95;70.69;94933.78;5093323;28;20226;-74
2023/10/19 05:42:46;;;;;;;21.30;16.53;;;;;;;8.10;70.51;94919.31;5108660;28;20248;-75
2023/10/19 05:45:13;;;;;;;19.27;13.80;;;;;;;8.22;70.51;94929.63;5108984;28;20223;-77
2023/10/19 05:47:38;;;;;;;20.60;13.90;;;;;;;8.35;70.28;94930.97;5106294;28;20219;-77
2023/10/19 05:50:05;;;;;;;21.03;15.23;;;;;;;8.24;70.20;94936.38;5112072;28;20184;-76
2023/10/19 05:52:30;;;;;;;18.87;16.77;;;;;;;8.39;70.16;94932.41;5109316;28;20229;-78
2023/10/19 05:54:57;;;;;;;17.70;15.80;;;;;;;8.33;70.29;94937.31;5114419;28;20294;-76
2023/10/19 05:57:23;;;;;;;16.03;13.93;;;;;;;8.50;70.25;94931.41;5110765;28;20227;-75
2023/10/19 05:59:49;;;;;;;17.43;14.03;;;;;;;8.56;69.74;94941.31;5112468;28;20234;-75
2023/10/19 06:02:15;;;;;;;19.87;15.47;;;;;;;8.54;69.96;94926.69;5113134;28;20203;-77
2023/10/19 06:04:40;;;;;;;18.13;14.20;;;;;;;8.69;69.77;94924.47;5116310;27;20227;-75
2023/10/19 06:07:06;;;;;;;20.03;15.33;;;;;;;8.66;70.01;94927.34;5115278;27;20227;-75
2023/10/19 06:09:31;;;;;;;16.97;14.13;;;;;;;8.86;69.42;94933.38;5113512;28;20223;-76
2023/10/19 06:11:57;;;;;;;15.67;13.50;;;;;;;8.79;69.81;94933.09;5096574;28;20261;-70
2023/10/19 06:14:22;;;;;;;11.43;10.13;;;;;;;9.00;69.26;94944.22;5113498;27;20214;-72
2023/10/19 06:16:48;;;;;;;13.97;12.03;;;;;;;8.84;69.76;94931.72;5115452;27;20244;-72
2023/10/19 06:19:13;;;;;;;10.27;9.27;;;;;;;8.98;69.35;94933.06;5115866;27;20223;-71
2023/10/19 06:21:39;;;;;;;10.93;8.33;;;;;;;9.19;69.08;94926.75;5116654;27;20234;-73
2023/10/19 06:24:05;;;;;;;13.33;8.23;;;;;;;9.24;68.57;94930.59;5093348;27;20230;-73
2023/10/19 06:26:31;;;;;;;9.37;7.30;;;;;;;9.13;69.35;94935.22;5094697;28;20211;-72
2023/10/19 06:28:58;;;;;;;8.70;7.10;;;;;;;9.19;68.66;94929.38;5087328;28;20196;-72
2023/10/19 06:31:28;;;;;;;10.40;6.68;;;;;;;9.24;68.24;94933.22;5086884;28;20222;-72
2023/10/19 06:33:54;;;;;;;9.82;7.00;;;;;;;9.28;68.26;94928.50;5094152;28;20227;-71
2023/10/19 06:36:19;;;;;;;7.37;6.33;;;;;;;9.32;68.34;94921.16;5100077;28;20239;-73
2023/10/19 06:38:45;;;;;;;9.13;6.47;;;;;;;9.33;68.09;94921.03;5102121;28;20302;-75
2023/10/19 06:41:12;;;;;;;7.40;6.43;;;;;;;9.40;67.17;94916.00;5106487;28;20203;-75
2023/10/19 06:43:39;;;;;;;8.00;6.77;;;;;;;9.58;67.33;94923.94;5109652;28;20228;-75
2023/10/19 06:46:05;;;;;;;7.43;6.33;;;;;;;9.65;66.87;94923.19;5092595;28;20298;-72
2023/10/19 06:48:31;;;;;;;9.73;7.77;;;;;;;9.74;66.57;94929.34;5108169;28;20272;-73
2023/10/19 06:50:57;;;;;;;9.10;8.13;;;;;;;9.75;66.59;94930.16;5102356;28;20227;-75
2023/10/19 06:53:22;;;;;;;7.45;6.22;;;;;;;9.55;67.47;94935.53;5114135;27;20179;-77
2023/10/19 06:55:48;;;;;;;6.93;6.32;;;;;;;9.77;67.00;94933.47;5115149;28;20179;-75
2023/10/19 06:58:14;;;;;;;6.67;6.07;;;;;;;9.99;66.23;94929.56;5104739;28;20231;-70
2023/10/19 07:00:43;;;;;;;7.07;6.17;;;;;;;9.85;66.08;94913.34;5109753;28;20238;-75
2023/10/19 07:03:09;;;;;;;8.33;7.53;;;;;;;9.98;65.63;94904.28;5108650;28;20223;-76
2023/10/19 07:05:34;;;;;;;11.10;7.93;;;;;;;10.13;65.52;94911.50;5109222;28;20190;-72
2023/10/19 07:08:01;;;;;;;8.27;7.47;;;;;;;10.23;65.46;94894.81;5109250;28;20187;-78
2023/10/19 07:10:28;;;;;;;12.25;9.15;;;;;;;10.42;65.05;94912.22;5110094;28;20246;-75
2023/10/19 07:12:54;;;;;;;8.90;8.13;;;;;;;10.49;64.24;94911.47;5100706;28;20226;-73
2023/10/19 07:15:22;;;;;;;8.73;7.93;;;;;;;10.33;64.53;94911.34;5109592;28;20280;-72
2023/10/19 07:17:48;;;;;;;9.57;8.68;;;;;;;10.46;64.72;94914.41;5109883;28;20325;-75
2023/10/19 07:20:25;;;;;;;10.55;8.73;;;;;;;10.43;64.77;94914.72;5102366;28;20205;-72
2023/10/19 07:22:51;;;;;;;9.43;8.52;;;;;;;10.39;64.70;94921.22;5107610;28;20255;-73
2023/10/19 07:25:26;;;;;;;10.02;9.02;;;;;;;10.16;65.43;94916.44;5110804;27;20223;-72
2023/10/19 07:27:52;;;;;;;8.85;8.02;;;;;;;10.31;65.72;94923.81;5110129;28;20226;-73
2023/10/19 07:30:26;;;;;;;10.15;9.15;;;;;;;10.69;64.64;94911.25;5106797;28;20220;-76
2023/10/19 07:32:58;;;;;;;15.60;13.82;;;;;;;10.88;64.32;94911.06;5112271;28;20241;-72
2023/10/19 07:35:25;;;;;;;9.07;8.15;;;;;;;10.73;63.58;94905.53;5109052;28;20187;-75
2023/10/19 07:37:51;;;;;;;8.80;7.90;;;;;;;10.75;63.43;94915.91;5109225;28;20186;-76
2023/10/19 07:40:17;;;;;;;8.57;7.78;;;;;;;11.00;63.01;94916.84;5122389;27;20219;-81
2023/10/19 07:42:44;;;;;;;9.10;8.27;;;;;;;10.87;62.49;94921.72;5104046;28;20223;-76
2023/10/19 07:45:11;;;;;;;10.02;9.00;;;;;;;10.91;62.32;94921.25;5109633;28;20219;-72
2023/10/19 07:47:41;;;;;;;9.15;8.35;;;;;;;10.86;62.46;94920.91;5108789;28;20222;-75
2023/10/19 07:50:15;;;;;;;8.68;7.88;;;;;;;11.05;62.68;94930.38;5108220;28;20172;-74
2023/10/19 07:52:46;;;;;;;9.20;8.30;;;;;;;10.81;63.43;94928.44;5123563;27;20216;-74
2023/10/19 07:55:12;;;;;;;10.48;8.70;;;;;;;10.84;63.23;94920.22;5116793;27;20223;-81
2023/10/19 07:57:40;;;;;;;9.48;8.48;;;;;;;10.89;63.77;94920.59;5107948;28;20260;-73
2023/10/19 08:00:10;;;;;;;11.40;8.38;;;;;;;11.18;62.54;94912.34;5104586;28;20219;-78
2023/10/19 08:02:40;;;;;;;9.30;8.48;;;;;;;11.24;62.20;94918.78;5111887;27;20190;-77
2023/10/19 08:05:06;;;;;;;9.88;8.63;;;;;;;11.26;61.74;94922.09;5108874;27;20227;-70
2023/10/19 08:07:34;;;;;;;10.07;8.90;;;;;;;11.41;61.42;94927.56;5104887;28;20219;-74
2023/10/19 08:10:00;;;;;;;11.50;10.05;;;;;;;11.46;60.65;94926.09;5107848;28;20230;-75
2023/10/19 08:12:26;;;;;;;9.85;8.85;;;;;;;11.48;60.51;94924.13;5108115;28;20227;-74
2023/10/19 08:14:52;;;;;;;13.52;10.25;;;;;;;11.64;60.81;94927.81;5106690;28;20238;-73
2023/10/19 08:17:18;;;;;;;12.35;10.73;;;;;;;11.64;61.46;94927.81;5105144;28;20179;-72
2023/10/19 08:19:43;;;;;;;12.45;11.23;;;;;;;11.81;61.26;94910.22;5105725;28;20180;-71
2023/10/19 08:22:09;;;;;;;13.40;12.10;;;;;;;11.99;60.35;94913.59;5104179;27;20215;-75
2023/10/19 08:24:35;;;;;;;12.85;11.65;;;;;;;12.10;60.07;94915.06;5125538;27;20222;-74
2023/10/19 08:27:06;;;;;;;14.73;12.38;;;;;;;12.00;60.00;94915.25;5112483;27;20230;-77
2023/10/19 08:29:31;;;;;;;13.70;12.38;;;;;;;12.04;60.06;94921.00;5108168;27;20179;-76
2023/10/19 08:31:57;;;;;;;16.73;12.23;;;;;;;12.04;60.01;94932.38;5109466;27;20307;-76
2023/10/19 08:34:25;;;;;;;13.10;11.63;;;;;;;12.10;59.28;94921.16;5111867;27;20221;-75
2023/10/19 08:36:51;;;;;;;14.85;13.23;;;;;;;12.26;58.96;94924.81;5115049;27;20215;-75
2023/10/19 08:39:17;;;;;;;13.90;12.50;;;;;;;12.27;59.05;94927.28;5109437;27;20230;-70
2023/10/19 08:41:43;;;;;;;14.85;13.45;;;;;;;12.43;58.29;94912.44;5126147;27;20230;-68
2023/10/19 08:44:11;;;;;;;14.20;12.90;;;;;;;12.66;58.08;94923.97;5105833;27;20187;-72
2023/10/19 08:46:45;;;;;;;13.35;11.77;;;;;;;13.03;57.72;94922.59;5100342;27;20231;-67
2023/10/19 08:49:12;;;;;;;11.65;10.65;;;;;;;13.11;57.37;94922.56;5109883;27;20229;-67
2023/10/19 08:51:38;;;;;;;12.52;11.32;;;;;;;13.19;55.87;94921.72;5105528;27;20230;-67
2023/10/19 08:54:05;;;;;;;12.02;10.90;;;;;;;13.06;57.04;94914.31;5111720;27;20222;-68
2023/10/19 08:56:33;;;;;;;12.65;11.52;;;;;;;12.98;56.50;94917.00;5109605;27;20183;-73
2023/10/19 08:59:00;;;;;;;13.20;12.00;;;;;;;13.03;56.13;94920.75;5110066;27;20175;-73
2023/10/19 09:01:27;;;;;;;13.63;12.23;;;;;;;12.78;57.41;94914.72;5113319;27;20218;-74
2023/10/19 09:03:53;;;;;;;11.13;10.18;;;;;;;13.01;56.44;94924.56;5110422;27;20223;-73
2023/10/19 09:06:20;;;;;;;11.85;10.68;;;;;;;13.17;57.02;94928.97;5127712;27;20287;-73
2023/10/19 09:08:48;;;;;;;11.85;9.50;;;;;;;13.10;56.30;94912.19;5110221;27;20226;-74
2023/10/19 09:11:14;;;;;;;11.30;10.27;;;;;;;13.19;55.71;94911.16;5104988;28;20172;-74
2023/10/19 09:13:49;;;;;;;10.98;9.25;;;;;;;13.33;55.67;94902.53;5107857;28;20225;-69
2023/10/19 09:16:15;;;;;;;11.10;9.82;;;;;;;13.50;56.01;94895.38;5111487;27;20222;-68
2023/10/19 09:18:41;;;;;;;9.93;9.05;;;;;;;13.64;54.73;94897.28;5111306;27;20230;-73
2023/10/19 09:21:07;;;;;;;10.30;9.25;;;;;;;13.67;54.21;94891.66;5126519;27;20675;-72
2023/10/19 09:23:34;;;;;;;10.23;9.27;;;;;;;13.83;54.15;94884.63;5112400;27;20214;-72
2023/10/19 09:26:03;;;;;;;9.93;9.02;;;;;;;13.85;54.55;94880.81;5105851;28;20185;-70
2023/10/19 09:28:29;;;;;;;10.10;9.10;;;;;;;14.01;54.17;94869.31;5110858;28;20222;-71
2023/10/19 09:30:55;;;;;;;11.98;9.45;;;;;;;14.31;53.32;94869.41;5110112;28;20200;-73
2023/10/19 09:33:24;;;;;;;9.18;7.95;;;;;;;14.47;53.26;94871.91;5127007;27;20222;-76
2023/10/19 09:35:52;;;;;;;9.73;8.82;;;;;;;14.75;52.87;94860.75;5110915;28;20221;-67
2023/10/19 09:38:27;;;;;;;9.00;8.05;;;;;;;14.98;52.38;94850.91;5108912;28;20301;-75
2023/10/19 09:40:54;;;;;;;9.50;8.60;;;;;;;15.15;51.20;94850.72;5094625;28;20206;-77
2023/10/19 09:43:46;;;;;;;9.00;8.10;;;;;;;15.35;50.90;94848.34;5093763;28;20414;-76
2023/10/19 09:46:17;;;;;;;9.70;8.82;;;;;;;15.53;50.84;94855.88;5116479;28;20234;-76
2023/10/19 09:48:47;;;;;;;9.07;8.18;;;;;;;15.56;50.98;94855.53;5118437;28;20305;-75
2023/10/19 09:51:16;;;;;;;9.48;8.10;;;;;;;15.65;50.33;94847.25;5099849;28;20219;-74
2023/10/19 09:53:43;;;;;;;8.20;7.40;;;;;;;15.73;50.26;94843.69;5098641;28;20218;-77
2023/10/19 09:56:17;;;;;;;13.38;12.02;;;;;;;15.84;51.01;94837.06;5100335;28;20198;-75
2023/10/19 09:58:49;;;;;;;11.05;9.43;;;;;;;15.75;49.97;94831.09;5101507;28;20210;-76
2023/10/19 10:01:15;;;;;;;9.43;8.23;;;;;;;15.99;49.83;94837.84;5126572;28;20227;-74
2023/10/19 10:03:48;;;;;;;9.38;8.50;;;;;;;15.93;49.51;94829.81;5105225;28;20219;-76
2023/10/19 10:06:27;;;;;;;8.75;7.95;;;;;;;15.85;50.70;94825.44;5109537;28;20214;-76
2023/10/19 10:08:53;;;;;;;10.15;8.82;;;;;;;16.05;49.43;94821.16;5126742;28;20214;-77
2023/10/19 10:11:24;;;;;;;9.25;8.35;;;;;;;15.95;49.32;94820.66;5109579;28;20197;-76
2023/10/19 10:13:53;;;;;;;10.05;9.15;;;;;;;15.78;50.07;94821.94;5107160;28;20251;-75
2023/10/19 10:16:21;;;;;;;10.27;9.38;;;;;;;15.56;50.54;94818.41;5106981;28;20215;-75
2023/10/19 10:18:48;;;;;;;8.82;8.05;;;;;;;15.33;51.71;94819.38;5124818;28;20293;-76
2023/10/19 10:21:23;;;;;;;9.23;8.43;;;;;;;15.29;51.90;94818.09;5103563;28;20301;-75
2023/10/19 10:23:52;;;;;;;8.80;8.00;;;;;;;15.30;52.30;94822.38;5106337;28;20294;-75
2023/10/19 10:26:20;;;;;;;8.68;7.82;;;;;;;15.35;52.34;94809.41;5106797;28;20275;-75
2023/10/19 10:28:50;;;;;;;9.10;8.20;;;;;;;15.33;52.42;94800.81;5108543;28;20184;-76
2023/10/19 10:31:21;;;;;;;8.32;7.53;;;;;;;15.27;51.66;94798.94;5105727;28;20214;-75
2023/10/19 10:33:54;;;;;;;8.93;8.13;;;;;;;15.41;51.37;94799.91;5102612;28;20233;-75
2023/10/19 10:36:21;;;;;;;9.95;8.38;;;;;;;15.62;51.47;94793.81;5124563;28;20451;-76
2023/10/19 10:38:48;;;;;;;8.90;8.00;;;;;;;15.74;51.76;94788.84;5107969;28;20241;-75
2023/10/19 10:41:27;;;;;;;8.30;7.65;;;;;;;15.96;50.18;94779.03;5128118;27;20221;-75
2023/10/19 10:43:57;;;;;;;8.52;7.70;;;;;;;15.97;49.94;94764.78;5112008;27;20218;-76
2023/10/19 10:46:28;;;;;;;8.85;8.07;;;;;;;16.05;50.54;94757.50;5127827;27;20313;-76
2023/10/19 10:48:54;;;;;;;9.15;8.25;;;;;;;16.25;50.13;94756.84;5110461;27;20215;-75
2023/10/19 10:51:25;;;;;;;8.40;7.70;;;;;;;16.45;49.92;94754.34;5130382;27;20232;-76
2023/10/19 10:53:52;;;;;;;8.60;7.80;;;;;;;16.53;49.40;94741.72;5112294;27;20234;-76
2023/10/19 10:56:19;;;;;;;7.97;7.32;;;;;;;16.71;48.55;94743.88;5110742;27;20195;-74
2023/10/19 10:58:45;;;;;;;7.95;7.25;;;;;;;16.64;48.74;94739.56;5112086;27;20221;-77
2023/10/19 11:01:10;;;;;;;8.90;8.10;;;;;;;16.88;48.40;94736.44;5109908;27;20245;-76
2023/10/19 11:03:42;;;;;;;8.25;7.55;;;;;;;16.94;47.49;94729.50;5112338;27;20230;-77
2023/10/19 11:06:09;;;;;;;9.60;8.70;;;;;;;16.77;48.53;94726.38;5127403;27;20227;-77
2023/10/19 11:08:36;;;;;;;8.65;7.82;;;;;;;16.91;48.31;94719.28;5109421;27;20691;-68
2023/10/19 11:11:12;;;;;;;8.38;7.57;;;;;;;16.96;48.67;94711.53;5123852;27;20177;-68
2023/10/19 11:13:38;;;;;;;7.60;7.00;;;;;;;17.05;47.94;94707.69;5112611;27;20225;-68
2023/10/19 11:16:06;;;;;;;7.28;6.68;;;;;;;17.25;47.97;94709.59;5129458;27;20250;-70
2023/10/19 11:18:35;;;;;;;8.00;7.00;;;;;;;17.39;47.39;94716.56;5124579;27;20215;-68
2023/10/19 11:21:05;;;;;;;8.48;7.78;;;;;;;17.59;47.02;94706.00;5109665;27;20238;-66
2023/10/19 11:23:36;;;;;;;7.55;6.63;;;;;;;17.58;46.97;94701.69;5126406;27;20231;-66
2023/10/19 11:26:08;;;;;;;8.10;7.13;;;;;;;17.29;46.53;94694.88;5110764;27;20206;-67
2023/10/19 11:28:34;;;;;;;8.15;7.43;;;;;;;17.35;47.37;94692.25;5110291;27;20215;-64
2023/10/19 11:31:13;;;;;;;9.15;7.60;;;;;;;17.36;46.44;94679.78;5110096;27;20287;-66
2023/10/19 11:33:39;;;;;;;8.85;6.35;;;;;;;17.32;46.67;94686.50;5109016;27;20278;-65
2023/10/19 11:36:05;;;;;;;8.50;7.80;;;;;;;17.57;46.54;94684.09;5109622;27;20237;-65
2023/10/19 11:38:31;;;;;;;10.73;7.30;;;;;;;17.71;46.76;94668.97;5111085;27;20179;-70
2023/10/19 11:40:57;;;;;;;7.68;6.97;;;;;;;17.89;47.49;94671.88;5111101;27;20198;-67
2023/10/19 11:43:22;;;;;;;7.65;7.05;;;;;;;18.18;45.17;94667.16;5110225;27;20218;-67